createdAt,value
2019-04-27T00:00:47.071Z,9.20
2019-04-27T00:03:17.388Z,9.08
2019-04-27T00:05:47.615Z,9.05
2019-04-27T00:08:17.941Z,9.03
2019-04-27T00:10:51.130Z,8.94
2019-04-27T00:13:20.079Z,8.81
2019-04-27T00:15:53.800Z,8.96
2019-04-27T00:18:45.065Z,9.07
2019-04-27T00:21:19.512Z,8.89
2019-04-27T00:23:48.965Z,8.80
2019-04-27T00:26:17.757Z,8.95
2019-04-27T00:28:46.458Z,8.91
2019-04-27T00:31:15.231Z,8.83
2019-04-27T00:33:44.123Z,8.78
2019-04-27T00:36:31.046Z,8.93
2019-04-27T00:39:03.524Z,9.13
2019-04-27T00:41:33.951Z,9.15
2019-04-27T00:44:03.732Z,9.22
2019-04-27T00:46:33.086Z,9.03
2019-04-27T00:49:03.707Z,8.98
2019-04-27T00:51:33.301Z,8.97
2019-04-27T00:54:02.293Z,9.05
2019-04-27T00:56:44.723Z,9.08
2019-04-27T00:59:17.786Z,8.93
2019-04-27T01:02:03.780Z,8.82
2019-04-27T01:04:34.063Z,8.82
2019-04-27T01:07:03.938Z,8.78
2019-04-27T01:09:33.898Z,8.73
2019-04-27T01:12:03.686Z,8.87
2019-04-27T01:14:34.147Z,8.70
2019-04-27T01:17:03.067Z,8.80
2019-04-27T01:19:31.752Z,8.77
2019-04-27T01:22:00.446Z,8.67
2019-04-27T01:24:30.464Z,8.64
2019-04-27T01:27:18.812Z,8.55
2019-04-27T01:29:50.088Z,8.68
2019-04-27T01:32:20.629Z,8.70
2019-04-27T01:34:49.679Z,8.76
2019-04-27T01:37:19.524Z,8.63
2019-04-27T01:39:50.545Z,8.75
2019-04-27T01:42:20.482Z,8.74
2019-04-27T01:44:50.791Z,8.67
2019-04-27T01:47:20.404Z,8.51
2019-04-27T01:49:49.572Z,8.60
2019-04-27T01:52:19.543Z,8.57
2019-04-27T01:54:49.622Z,8.58
2019-04-27T01:57:19.875Z,8.68
2019-04-27T01:59:50.713Z,8.64
2019-04-27T02:02:21.207Z,8.65
2019-04-27T02:04:54.509Z,8.58
2019-04-27T02:07:23.289Z,8.60
2019-04-27T02:09:52.179Z,8.58
2019-04-27T02:12:21.335Z,8.60
2019-04-27T02:14:50.486Z,8.66
2019-04-27T02:17:19.159Z,8.59
2019-04-27T02:19:49.384Z,8.61
2019-04-27T02:22:18.771Z,8.58
2019-04-27T02:24:49.261Z,8.61
2019-04-27T02:27:19.951Z,8.66
2019-04-27T02:30:06.117Z,8.58
2019-04-27T02:32:39.704Z,8.58
2019-04-27T02:35:09.926Z,8.28
2019-04-27T02:37:40.439Z,8.26
2019-04-27T02:40:42.398Z,8.19
2019-04-27T02:43:10.853Z,8.35
2019-04-27T02:45:40.265Z,8.32
2019-04-27T02:48:09.807Z,8.24
2019-04-27T02:50:39.913Z,8.32
2019-04-27T02:53:11.037Z,8.35
2019-04-27T02:55:40.322Z,8.41
2019-04-27T02:58:09.982Z,8.44
2019-04-27T03:00:40.195Z,8.42
2019-04-27T03:03:10.548Z,8.11
2019-04-27T03:05:42.466Z,8.26
2019-04-27T03:08:11.366Z,8.19
2019-04-27T03:10:40.286Z,8.20
2019-04-27T03:13:16.409Z,8.44
2019-04-27T03:16:00.458Z,8.33
2019-04-27T03:18:33.916Z,8.29
2019-04-27T03:21:07.229Z,8.44
2019-04-27T03:23:36.387Z,8.31
2019-04-27T03:26:24.772Z,8.32
2019-04-27T03:28:54.367Z,8.29
2019-04-27T03:31:23.160Z,8.31
2019-04-27T03:33:58.621Z,8.39
2019-04-27T03:36:22.687Z,8.36
2019-04-27T03:38:51.405Z,8.18
2019-04-27T03:41:20.753Z,8.12
2019-04-27T03:43:50.444Z,8.30
2019-04-27T03:46:22.052Z,8.30
2019-04-27T03:48:50.843Z,8.25
2019-04-27T03:51:21.839Z,8.14
2019-04-27T03:54:00.409Z,8.34
2019-04-27T03:56:30.920Z,8.17
2019-04-27T03:59:01.882Z,8.09
2019-04-27T04:01:33.538Z,8.18
2019-04-27T04:04:02.509Z,8.23
2019-04-27T04:06:31.407Z,8.29
2019-04-27T04:09:00.471Z,8.30
2019-04-27T04:11:33.142Z,8.22
2019-04-27T04:14:06.808Z,8.26
2019-04-27T04:16:40.070Z,8.18
2019-04-27T04:19:11.932Z,8.18
2019-04-27T04:21:40.940Z,8.22
2019-04-27T04:24:11.968Z,8.49
2019-04-27T04:26:41.379Z,8.34
2019-04-27T04:29:10.607Z,8.36
2019-04-27T04:31:40.530Z,8.34
2019-04-27T04:34:12.270Z,8.40
2019-04-27T04:36:42.965Z,8.41
2019-04-27T04:39:12.765Z,8.46
2019-04-27T04:41:50.941Z,8.42
2019-04-27T04:44:21.017Z,8.45
2019-04-27T04:46:51.347Z,8.49
2019-04-27T04:49:20.026Z,8.50
2019-04-27T04:51:50.327Z,8.38
2019-04-27T04:54:19.874Z,8.54
2019-04-27T04:56:50.170Z,8.46
2019-04-27T04:59:20.093Z,8.62
2019-04-27T05:01:49.910Z,8.60
2019-04-27T05:04:19.454Z,8.63
2019-04-27T05:06:49.164Z,8.62
2019-04-27T05:09:19.363Z,8.77
2019-04-27T05:11:48.697Z,8.63
2019-04-27T05:14:19.807Z,8.93
2019-04-27T05:16:48.927Z,8.77
2019-04-27T05:19:18.838Z,8.98
2019-04-27T05:21:51.574Z,8.81
2019-04-27T05:24:20.411Z,8.79
2019-04-27T05:26:49.267Z,8.79
2019-04-27T05:29:19.161Z,8.95
2019-04-27T05:31:49.019Z,8.85
2019-04-27T05:34:19.723Z,8.80
2019-04-27T05:36:52.399Z,8.86
2019-04-27T05:39:24.670Z,9.08
2019-04-27T05:41:50.983Z,9.06
2019-04-27T05:44:21.240Z,9.07
2019-04-27T05:46:58.784Z,9.19
2019-04-27T05:49:29.574Z,9.22
2019-04-27T05:51:59.439Z,9.25
2019-04-27T05:54:29.390Z,9.16
2019-04-27T05:57:01.938Z,9.13
2019-04-27T05:59:33.401Z,9.19
2019-04-27T06:02:02.351Z,9.25
2019-04-27T06:04:31.118Z,9.35
2019-04-27T06:07:01.174Z,9.65
2019-04-27T06:09:29.910Z,9.60
2019-04-27T06:12:01.389Z,9.49
2019-04-27T06:14:31.272Z,9.88
2019-04-27T06:16:59.995Z,10.03
2019-04-27T06:19:29.188Z,9.59
2019-04-27T06:22:01.148Z,9.68
2019-04-27T06:24:32.955Z,9.66
2019-04-27T06:27:01.675Z,9.59
2019-04-27T06:29:30.981Z,9.81
2019-04-27T06:31:59.761Z,10.04
2019-04-27T06:34:30.864Z,9.91
2019-04-27T06:36:59.917Z,9.96
2019-04-27T06:39:29.777Z,9.71
2019-04-27T06:42:01.201Z,10.00
2019-04-27T06:44:29.952Z,10.00
2019-04-27T06:46:59.240Z,9.57
2019-04-27T06:49:29.579Z,9.58
2019-04-27T06:51:59.007Z,9.78
2019-04-27T06:54:28.882Z,9.81
2019-04-27T06:56:59.217Z,9.79
2019-04-27T06:59:28.857Z,9.52
2019-04-27T07:01:59.270Z,9.58
2019-04-27T07:04:29.514Z,9.63
2019-04-27T07:06:59.452Z,9.91
2019-04-27T07:09:29.629Z,9.75
2019-04-27T07:11:59.385Z,9.88
2019-04-27T07:14:29.507Z,9.93
2019-04-27T07:16:59.828Z,9.89
2019-04-27T07:19:30.227Z,9.97
2019-04-27T07:21:59.532Z,10.10
2019-04-27T07:24:29.254Z,10.14
2019-04-27T07:26:59.679Z,10.32
2019-04-27T07:29:29.249Z,10.15
2019-04-27T07:31:59.808Z,10.45
2019-04-27T07:34:30.564Z,10.08
2019-04-27T07:36:59.901Z,10.41
2019-04-27T07:39:29.518Z,10.14
2019-04-27T07:41:58.717Z,10.02
2019-04-27T07:44:29.410Z,10.35
2019-04-27T07:47:19.467Z,10.39
2019-04-27T07:49:49.748Z,10.17
2019-04-27T07:52:20.662Z,10.43
2019-04-27T07:54:49.606Z,10.21
2019-04-27T07:57:19.728Z,10.39
2019-04-27T07:59:50.111Z,10.51
2019-04-27T08:02:19.351Z,10.76
2019-04-27T08:04:50.277Z,11.23
2019-04-27T08:07:19.648Z,10.91
2019-04-27T08:09:49.685Z,11.07
2019-04-27T08:12:20.938Z,11.04
2019-04-27T08:14:50.148Z,10.87
2019-04-27T08:17:19.286Z,10.86
2019-04-27T08:19:49.558Z,10.87
2019-04-27T08:22:19.312Z,10.90
2019-04-27T08:24:49.666Z,11.58
2019-04-27T08:27:36.635Z,11.57
2019-04-27T08:30:12.369Z,11.44
2019-04-27T08:32:45.463Z,11.79
2019-04-27T08:35:16.202Z,11.85
2019-04-27T08:37:44.888Z,11.07
2019-04-27T08:40:14.011Z,11.38
2019-04-27T08:42:42.660Z,11.40
2019-04-27T08:45:11.968Z,11.66
2019-04-27T08:47:41.749Z,11.54
2019-04-27T08:50:10.980Z,11.42
2019-04-27T08:52:41.842Z,11.32
2019-04-27T08:55:11.855Z,11.82
2019-04-27T08:57:41.642Z,11.55
2019-04-27T09:00:11.487Z,11.51
2019-04-27T09:02:46.754Z,11.30
2019-04-27T09:05:12.654Z,11.41
2019-04-27T09:08:01.306Z,11.94
2019-04-27T09:10:34.567Z,11.84
2019-04-27T09:13:04.895Z,11.87
2019-04-27T09:15:39.140Z,12.39
2019-04-27T09:18:09.083Z,11.82
2019-04-27T09:20:40.633Z,11.84
2019-04-27T09:23:10.345Z,12.24
2019-04-27T09:25:39.694Z,11.95
2019-04-27T09:28:08.905Z,12.13
2019-04-27T09:30:39.443Z,11.87
2019-04-27T09:33:08.920Z,12.60
2019-04-27T09:35:38.983Z,12.41
2019-04-27T09:38:07.667Z,12.67
2019-04-27T09:40:36.427Z,12.88
2019-04-27T09:43:05.063Z,12.75
2019-04-27T09:45:34.173Z,12.74
2019-04-27T09:48:02.859Z,12.45
2019-04-27T09:50:31.590Z,12.74
2019-04-27T09:53:00.357Z,12.18
2019-04-27T09:55:29.046Z,12.21
2019-04-27T09:57:57.846Z,12.70
2019-04-27T10:00:27.899Z,12.65
2019-04-27T10:02:56.761Z,12.61
2019-04-27T10:05:26.331Z,12.48
2019-04-27T10:07:56.929Z,12.78
2019-04-27T10:10:26.800Z,12.86
2019-04-27T10:12:56.994Z,12.89
2019-04-27T10:15:26.622Z,13.17
2019-04-27T10:17:57.577Z,12.90
2019-04-27T10:20:26.476Z,12.99
2019-04-27T10:22:56.454Z,13.39
2019-04-27T10:25:29.363Z,12.80
2019-04-27T10:27:58.694Z,13.10
2019-04-27T10:30:28.503Z,13.42
2019-04-27T10:32:57.187Z,13.22
2019-04-27T10:35:26.112Z,13.80
2019-04-27T10:37:55.296Z,13.40
2019-04-27T10:40:26.238Z,12.97
2019-04-27T10:42:56.261Z,13.55
2019-04-27T10:45:25.324Z,13.61
2019-04-27T10:47:54.095Z,13.56
2019-04-27T10:50:23.365Z,13.37
2019-04-27T10:52:53.897Z,13.37
2019-04-27T10:55:23.350Z,13.26
2019-04-27T10:57:54.842Z,13.69
2019-04-27T11:00:25.730Z,13.28
2019-04-27T11:02:58.421Z,12.65
2019-04-27T11:05:31.137Z,13.18
2019-04-27T11:08:00.546Z,12.44
2019-04-27T11:10:29.394Z,12.06
2019-04-27T11:12:59.594Z,11.78
2019-04-27T11:15:28.277Z,12.20
2019-04-27T11:17:57.275Z,12.48
2019-04-27T11:20:27.843Z,12.20
2019-04-27T11:23:07.039Z,12.01
2019-04-27T11:25:28.535Z,11.97
2019-04-27T11:27:57.818Z,11.74
2019-04-27T11:30:26.565Z,11.41
2019-04-27T11:32:58.935Z,11.78
2019-04-27T11:35:35.975Z,12.19
2019-04-27T11:38:05.901Z,12.76
2019-04-27T11:40:34.472Z,12.10
2019-04-27T11:43:05.912Z,12.24
2019-04-27T11:45:36.254Z,11.93
2019-04-27T11:48:13.645Z,11.95
2019-04-27T11:50:42.352Z,12.03
2019-04-27T11:53:22.106Z,11.90
2019-04-27T11:55:41.669Z,11.73
2019-04-27T11:58:10.388Z,11.69
2019-04-27T12:00:39.152Z,11.41
2019-04-27T12:03:08.869Z,11.51
2019-04-27T12:05:37.552Z,11.55
2019-04-27T12:08:06.450Z,11.36
2019-04-27T12:10:36.888Z,11.42
2019-04-27T12:13:07.606Z,11.30
2019-04-27T12:15:37.001Z,11.28
2019-04-27T12:18:08.934Z,11.26
2019-04-27T12:20:36.938Z,11.40
2019-04-27T12:23:06.549Z,11.43
2019-04-27T12:25:37.316Z,11.35
2019-04-27T12:28:10.118Z,11.10
2019-04-27T12:30:41.084Z,11.11
2019-04-27T12:33:10.319Z,11.14
2019-04-27T12:35:39.090Z,11.15
2019-04-27T12:38:07.775Z,10.99
2019-04-27T12:40:37.991Z,11.04
2019-04-27T12:43:06.916Z,11.02
2019-04-27T12:45:39.959Z,10.87
2019-04-27T12:48:08.057Z,11.00
2019-04-27T12:50:36.821Z,10.54
2019-04-27T12:53:07.383Z,10.58
2019-04-27T12:55:46.834Z,10.53
2019-04-27T12:58:26.595Z,10.56
2019-04-27T13:01:11.631Z,10.52
2019-04-27T13:03:42.063Z,10.56
2019-04-27T13:06:13.904Z,10.73
2019-04-27T13:08:45.790Z,10.67
2019-04-27T13:11:16.208Z,10.94
2019-04-27T13:13:45.095Z,10.78
2019-04-27T13:16:13.878Z,10.63
2019-04-27T13:18:42.657Z,10.81
2019-04-27T13:21:11.342Z,10.64
2019-04-27T13:23:40.166Z,10.86
2019-04-27T13:26:08.852Z,10.99
2019-04-27T13:28:37.507Z,10.80
2019-04-27T13:31:07.092Z,10.93
2019-04-27T13:33:36.507Z,11.42
2019-04-27T13:36:07.601Z,11.91
2019-04-27T13:38:36.599Z,12.77
2019-04-27T13:41:07.141Z,12.34
2019-04-27T13:43:37.353Z,12.38
2019-04-27T13:46:08.319Z,12.14
2019-04-27T13:48:56.231Z,12.04
2019-04-27T13:51:42.891Z,12.50
2019-04-27T13:54:21.520Z,12.30
2019-04-27T13:56:42.410Z,12.57
2019-04-27T13:59:12.785Z,12.37
2019-04-27T14:01:41.857Z,12.60
2019-04-27T14:04:10.628Z,12.76
2019-04-27T14:06:42.084Z,13.10
2019-04-27T14:09:12.657Z,12.90
2019-04-27T14:11:45.926Z,12.99
2019-04-27T14:14:18.432Z,13.03
2019-04-27T14:16:49.221Z,12.80
2019-04-27T14:19:19.759Z,12.43
2019-04-27T14:21:49.103Z,12.40
2019-04-27T14:24:27.936Z,12.65
2019-04-27T14:26:50.297Z,12.79
2019-04-27T14:29:21.558Z,13.03
2019-04-27T14:31:50.239Z,13.27
2019-04-27T14:34:19.159Z,13.15
2019-04-27T14:36:53.353Z,12.92
2019-04-27T14:39:23.783Z,13.44
2019-04-27T14:41:52.866Z,13.27
2019-04-27T14:44:22.640Z,13.50
2019-04-27T14:46:52.959Z,13.59
2019-04-27T14:49:24.821Z,13.28
2019-04-27T14:51:53.776Z,13.18
2019-04-27T14:54:23.306Z,12.80
2019-04-27T14:56:52.318Z,12.60
2019-04-27T14:59:21.161Z,12.92
2019-04-27T15:01:52.178Z,13.06
2019-04-27T15:04:20.875Z,13.11
2019-04-27T15:06:49.888Z,12.99
2019-04-27T15:09:21.002Z,13.41
2019-04-27T15:11:53.613Z,13.13
2019-04-27T15:14:23.707Z,13.14
2019-04-27T15:16:52.571Z,13.21
2019-04-27T15:19:25.911Z,13.69
2019-04-27T15:21:58.862Z,13.73
2019-04-27T15:24:27.676Z,14.03
2019-04-27T15:27:00.718Z,13.78
2019-04-27T15:29:29.098Z,13.68
2019-04-27T15:32:05.407Z,13.65
2019-04-27T15:34:40.060Z,13.48
2019-04-27T15:37:22.852Z,13.24
2019-04-27T15:40:04.037Z,13.07
2019-04-27T15:42:31.696Z,13.35
2019-04-27T15:45:00.386Z,13.49
2019-04-27T15:47:29.195Z,13.61
2019-04-27T15:49:59.003Z,13.44
2019-04-27T15:52:33.130Z,13.51
2019-04-27T15:55:02.704Z,13.24
2019-04-27T15:57:33.483Z,12.98
2019-04-27T16:00:01.751Z,13.04
2019-04-27T16:02:30.614Z,12.84
2019-04-27T16:05:00.151Z,12.82
2019-04-27T16:07:32.026Z,12.86
2019-04-27T16:10:02.670Z,12.81
2019-04-27T16:12:30.310Z,12.79
2019-04-27T16:15:00.334Z,12.93
2019-04-27T16:17:31.909Z,12.79
2019-04-27T16:19:59.600Z,12.65
2019-04-27T16:22:28.661Z,12.65
2019-04-27T16:24:58.124Z,12.75
2019-04-27T16:27:31.457Z,12.69
2019-04-27T16:29:57.889Z,12.71
2019-04-27T16:32:27.797Z,12.56
2019-04-27T16:34:56.504Z,12.62
2019-04-27T16:37:29.033Z,12.53
2019-04-27T16:39:59.961Z,12.42
2019-04-27T16:42:29.357Z,12.52
2019-04-27T16:44:58.239Z,12.24
2019-04-27T16:47:28.185Z,12.10
2019-04-27T16:49:58.644Z,12.21
2019-04-27T16:52:29.786Z,12.02
2019-04-27T16:55:00.660Z,11.94
2019-04-27T16:57:32.473Z,12.02
2019-04-27T17:00:01.263Z,11.96
2019-04-27T17:02:30.113Z,11.95
2019-04-27T17:05:00.551Z,11.72
2019-04-27T17:07:37.404Z,11.45
2019-04-27T17:10:04.230Z,11.57
2019-04-27T17:12:41.359Z,11.45
2019-04-27T17:15:29.955Z,11.44
2019-04-27T17:18:19.885Z,11.30
2019-04-27T17:20:52.601Z,11.13
2019-04-27T17:23:31.263Z,11.05
2019-04-27T17:26:05.943Z,10.96
2019-04-27T17:28:33.449Z,10.95
2019-04-27T17:31:02.103Z,10.99
2019-04-27T17:33:35.043Z,10.92
2019-04-27T17:36:04.025Z,10.69
2019-04-27T17:38:34.593Z,10.62
2019-04-27T17:41:04.765Z,10.51
2019-04-27T17:43:37.402Z,10.46
2019-04-27T17:46:07.394Z,10.44
2019-04-27T17:48:37.959Z,10.50
2019-04-27T17:51:08.879Z,10.32
2019-04-27T17:53:38.501Z,10.38
2019-04-27T17:56:08.688Z,10.52
2019-04-27T17:58:39.754Z,10.43
2019-04-27T18:01:14.083Z,10.32
2019-04-27T18:03:40.855Z,10.35
2019-04-27T18:06:09.683Z,10.32
2019-04-27T18:08:40.367Z,10.38
2019-04-27T18:11:10.854Z,10.27
2019-04-27T18:13:42.097Z,10.23
2019-04-27T18:16:10.671Z,10.22
2019-04-27T18:19:00.074Z,10.05
2019-04-27T18:21:29.437Z,9.89
2019-04-27T18:24:01.507Z,9.86
2019-04-27T18:26:32.208Z,9.64
2019-04-27T18:29:01.703Z,9.53
2019-04-27T18:31:32.779Z,9.43
2019-04-27T18:34:01.610Z,9.29
2019-04-27T18:36:30.389Z,9.21
2019-04-27T18:38:59.624Z,9.32
2019-04-27T18:41:28.800Z,9.40
2019-04-27T18:44:00.449Z,9.28
2019-04-27T18:46:32.081Z,9.29
2019-04-27T18:49:03.389Z,9.31
2019-04-27T18:51:41.819Z,9.19
2019-04-27T18:54:11.496Z,9.23
2019-04-27T18:56:42.499Z,9.19
2019-04-27T18:59:11.415Z,9.22
2019-04-27T19:01:40.143Z,9.12
2019-04-27T19:04:13.623Z,8.96
2019-04-27T19:06:44.681Z,9.03
2019-04-27T19:09:18.492Z,9.01
2019-04-27T19:11:56.205Z,9.04
2019-04-27T19:14:18.967Z,9.05
2019-04-27T19:16:49.484Z,9.02
2019-04-27T19:19:18.939Z,8.90
2019-04-27T19:21:48.648Z,8.90
2019-04-27T19:24:19.189Z,8.75
2019-04-27T19:26:56.144Z,8.63
2019-04-27T19:29:29.566Z,8.68
2019-04-27T19:32:00.226Z,8.76
2019-04-27T19:34:29.022Z,8.50
2019-04-27T19:36:59.283Z,8.44
2019-04-27T19:39:28.553Z,8.48
2019-04-27T19:42:03.068Z,8.49
2019-04-27T19:44:29.140Z,8.47
2019-04-27T19:47:00.169Z,8.42
2019-04-27T19:49:34.667Z,8.33
2019-04-27T19:52:08.793Z,8.38
2019-04-27T19:54:39.787Z,8.45
2019-04-27T19:57:09.269Z,8.36
2019-04-27T19:59:52.143Z,8.31
2019-04-27T20:02:22.150Z,8.30
2019-04-27T20:04:53.158Z,8.33
2019-04-27T20:07:22.034Z,8.30
2019-04-27T20:09:53.499Z,8.31
2019-04-27T20:12:23.783Z,8.44
2019-04-27T20:14:59.805Z,8.19
2019-04-27T20:17:31.164Z,8.01
2019-04-27T20:20:01.490Z,8.20
2019-04-27T20:22:32.458Z,8.18
2019-04-27T20:25:02.032Z,8.21
2019-04-27T20:27:45.230Z,8.33
2019-04-27T20:30:03.056Z,8.32
2019-04-27T20:32:34.191Z,8.27
2019-04-27T20:35:03.197Z,8.12
2019-04-27T20:37:31.937Z,8.23
2019-04-27T20:40:01.603Z,8.22
2019-04-27T20:42:31.561Z,8.09
2019-04-27T20:45:01.925Z,7.99
2019-04-27T20:47:32.924Z,8.00
2019-04-27T20:50:01.931Z,7.97
2019-04-27T20:52:35.007Z,7.91
2019-04-27T20:55:05.339Z,7.86
2019-04-27T20:57:34.978Z,7.83
2019-04-27T21:00:06.155Z,7.79
2019-04-27T21:02:36.391Z,7.72
2019-04-27T21:05:21.074Z,7.71
2019-04-27T21:07:52.863Z,7.75
2019-04-27T21:10:21.738Z,7.83
2019-04-27T21:12:51.881Z,7.78
2019-04-27T21:15:21.393Z,7.65
2019-04-27T21:17:51.191Z,7.47
2019-04-27T21:20:21.782Z,7.55
2019-04-27T21:22:51.548Z,7.37
2019-04-27T21:25:21.181Z,7.30
2019-04-27T21:27:51.362Z,7.23
2019-04-27T21:30:21.360Z,7.19
2019-04-27T21:32:50.924Z,7.30
2019-04-27T21:35:21.102Z,7.34
2019-04-27T21:37:51.139Z,7.41
2019-04-27T21:40:21.511Z,7.39
2019-04-27T21:42:51.425Z,7.31
2019-04-27T21:45:21.753Z,7.26
2019-04-27T21:47:52.382Z,7.26
2019-04-27T21:50:23.180Z,7.16
2019-04-27T21:52:56.372Z,7.12
2019-04-27T21:55:30.906Z,7.19
2019-04-27T21:58:01.406Z,7.11
2019-04-27T22:00:43.379Z,7.13
2019-04-27T22:03:13.826Z,7.18
2019-04-27T22:05:42.738Z,7.20
2019-04-27T22:08:11.822Z,7.31
2019-04-27T22:10:41.030Z,7.37
2019-04-27T22:13:09.773Z,7.34
2019-04-27T22:15:38.461Z,7.23
2019-04-27T22:18:07.881Z,7.26
2019-04-27T22:20:36.863Z,7.32
2019-04-27T22:23:16.086Z,7.35
2019-04-27T22:25:44.724Z,7.30
2019-04-27T22:28:13.414Z,7.37
2019-04-27T22:30:42.035Z,7.44
2019-04-27T22:33:11.325Z,7.38
2019-04-27T22:35:41.425Z,7.36
2019-04-27T22:38:11.964Z,7.54
2019-04-27T22:40:51.543Z,7.44
2019-04-27T22:43:31.539Z,7.40
2019-04-27T22:46:02.010Z,7.37
2019-04-27T22:48:31.408Z,7.53
2019-04-27T22:51:01.625Z,7.49
2019-04-27T22:53:30.633Z,7.47
2019-04-27T22:56:13.583Z,7.41
2019-04-27T22:58:43.459Z,7.35
2019-04-27T23:01:30.199Z,7.40
2019-04-27T23:04:02.008Z,7.50
2019-04-27T23:06:32.655Z,7.48
2019-04-27T23:09:01.686Z,7.40
2019-04-27T23:11:31.375Z,7.32
2019-04-27T23:14:01.010Z,7.31
2019-04-27T23:16:31.606Z,7.39
2019-04-27T23:19:01.834Z,7.39
2019-04-27T23:21:31.269Z,7.44
2019-04-27T23:24:01.870Z,7.54
2019-04-27T23:26:31.220Z,7.58
2019-04-27T23:29:11.066Z,7.54
2019-04-27T23:31:41.242Z,7.43
2019-04-27T23:34:11.739Z,7.49
2019-04-27T23:36:42.425Z,7.49
2019-04-27T23:39:11.897Z,7.45
2019-04-27T23:41:40.606Z,7.37
2019-04-27T23:44:09.294Z,7.36
2019-04-27T23:46:37.932Z,7.39
2019-04-27T23:49:06.615Z,7.40
2019-04-27T23:51:36.852Z,7.45
2019-04-27T23:54:05.464Z,7.50
2019-04-27T23:56:34.259Z,7.33
2019-04-27T23:59:02.867Z,7.49
